createdAt,value
2018-07-21T00:02:39.700Z,14.23
2018-07-21T00:06:43.138Z,15.18
2018-07-21T00:10:46.698Z,15.70
2018-07-21T00:14:50.183Z,14.98
2018-07-21T00:18:53.638Z,14.93
2018-07-21T00:22:57.125Z,14.98
2018-07-21T00:27:00.694Z,14.65
2018-07-21T00:31:04.229Z,14.75
2018-07-21T00:35:07.701Z,15.32
2018-07-21T00:39:15.604Z,15.60
2018-07-21T00:43:19.104Z,14.65
2018-07-21T00:47:22.549Z,14.15
2018-07-21T00:51:26.101Z,15.72
2018-07-21T00:55:29.561Z,14.73
2018-07-21T00:59:33.051Z,15.35
2018-07-21T01:03:36.534Z,18.62
2018-07-21T01:07:40.011Z,15.95
2018-07-21T01:11:43.476Z,15.85
2018-07-21T01:15:46.950Z,15.93
2018-07-21T01:19:50.452Z,16.30
2018-07-21T01:23:53.953Z,16.70
2018-07-21T01:27:57.465Z,16.75
2018-07-21T01:32:00.927Z,16.65
2018-07-21T01:36:04.393Z,16.45
2018-07-21T01:40:07.821Z,15.48
2018-07-21T01:44:11.294Z,15.88
2018-07-21T01:48:14.799Z,16.67
2018-07-21T01:52:18.295Z,15.85
2018-07-21T01:56:21.798Z,14.40
2018-07-21T02:00:25.312Z,15.43
2018-07-21T02:04:28.849Z,16.50
2018-07-21T02:08:32.932Z,16.20
2018-07-21T02:12:36.650Z,18.07
2018-07-21T02:16:40.205Z,16.15
2018-07-21T02:20:43.928Z,15.75
2018-07-21T02:24:47.563Z,15.87
2018-07-21T02:28:51.595Z,15.30
2018-07-21T02:32:55.165Z,16.87
2018-07-21T02:36:58.669Z,17.70
2018-07-21T02:41:02.537Z,16.73
2018-07-21T02:45:06.181Z,16.07
2018-07-21T02:49:10.661Z,15.97
2018-07-21T02:53:15.239Z,15.80
2018-07-21T02:57:18.822Z,17.43
2018-07-21T03:01:22.464Z,16.10
2018-07-21T03:05:26.113Z,17.37
2018-07-21T03:09:29.860Z,17.40
2018-07-21T03:13:36.020Z,16.40
2018-07-21T03:17:39.730Z,17.27
2018-07-21T03:21:43.416Z,16.57
2018-07-21T03:25:46.982Z,17.20
2018-07-21T03:29:50.732Z,16.90
2018-07-21T03:33:54.573Z,17.60
2018-07-21T03:37:58.345Z,16.60
2018-07-21T03:42:01.950Z,17.23
2018-07-21T03:46:06.233Z,16.97
2018-07-21T03:50:09.973Z,17.93
2018-07-21T03:54:13.882Z,16.73
2018-07-21T03:58:17.534Z,18.60
2018-07-21T04:02:21.216Z,18.13
2018-07-21T04:06:25.889Z,17.80
2018-07-21T04:10:29.709Z,18.33
2018-07-21T04:14:33.426Z,18.23
2018-07-21T04:18:37.206Z,18.73
2018-07-21T04:22:41.012Z,17.80
2018-07-21T04:26:45.033Z,18.73
2018-07-21T04:30:49.278Z,18.10
2018-07-21T04:34:52.994Z,17.57
2018-07-21T04:38:56.933Z,17.67
2018-07-21T04:43:00.707Z,17.87
2018-07-21T04:47:04.540Z,19.17
2018-07-21T04:51:08.815Z,18.53
2018-07-21T04:55:12.554Z,18.80
2018-07-21T04:59:16.218Z,19.60
2018-07-21T05:03:19.858Z,18.97
2018-07-21T05:07:23.577Z,18.62
2018-07-21T05:11:27.296Z,17.73
2018-07-21T05:15:31.089Z,18.27
2018-07-21T05:19:35.029Z,17.90
2018-07-21T05:23:41.798Z,17.95
2018-07-21T05:27:45.231Z,17.52
2018-07-21T05:31:48.688Z,17.82
2018-07-21T05:35:52.159Z,17.75
2018-07-21T05:39:55.625Z,17.15
2018-07-21T05:43:59.157Z,16.93
2018-07-21T05:48:02.643Z,17.60
2018-07-21T05:52:06.127Z,17.35
2018-07-21T05:56:09.563Z,17.73
2018-07-21T06:00:14.022Z,17.30
2018-07-21T06:04:17.481Z,16.82
2018-07-21T06:08:20.910Z,16.30
2018-07-21T06:12:24.370Z,16.50
2018-07-21T06:16:27.844Z,16.95
2018-07-21T06:20:31.295Z,15.25
2018-07-21T06:24:34.773Z,14.18
2018-07-21T06:28:38.215Z,16.57
2018-07-21T06:32:41.851Z,16.12
2018-07-21T06:36:45.331Z,15.78
2018-07-21T06:40:48.795Z,15.68
2018-07-21T06:44:52.248Z,14.78
2018-07-21T06:48:55.803Z,14.07
2018-07-21T06:52:59.247Z,14.98
2018-07-21T06:57:02.687Z,14.63
2018-07-21T07:01:06.463Z,13.85
2018-07-21T07:05:10.252Z,13.45
2018-07-21T07:09:13.718Z,14.63
2018-07-21T07:13:17.215Z,13.83
2018-07-21T07:17:20.657Z,13.80
2018-07-21T07:21:24.105Z,14.87
2018-07-21T07:25:27.574Z,15.18
2018-07-21T07:29:31.029Z,14.28
2018-07-21T07:33:34.522Z,14.18
2018-07-21T07:37:38.018Z,13.55
2018-07-21T07:41:41.497Z,13.08
2018-07-21T07:45:44.992Z,12.95
2018-07-21T07:49:48.485Z,12.82
2018-07-21T07:53:51.958Z,13.53
2018-07-21T07:57:55.440Z,12.50
2018-07-21T08:01:58.902Z,12.40
2018-07-21T08:06:02.431Z,13.38
2018-07-21T08:10:06.059Z,12.05
2018-07-21T08:14:09.550Z,12.88
2018-07-21T08:18:12.983Z,12.85
2018-07-21T08:22:16.455Z,12.63
2018-07-21T08:26:19.941Z,12.82
2018-07-21T08:30:23.392Z,13.48
2018-07-21T08:34:26.899Z,12.50
2018-07-21T08:38:30.438Z,14.13
2018-07-21T08:42:33.895Z,13.38
2018-07-21T08:46:37.367Z,12.75
2018-07-21T08:50:40.790Z,12.05
2018-07-21T08:54:44.319Z,11.60
2018-07-21T08:58:47.772Z,10.50
2018-07-21T09:02:51.313Z,10.45
2018-07-21T09:06:54.814Z,10.48
2018-07-21T09:10:58.268Z,9.40
2018-07-21T09:15:01.747Z,12.05
2018-07-21T09:19:05.492Z,9.23
2018-07-21T09:23:08.938Z,10.28
2018-07-21T09:27:12.381Z,9.58
2018-07-21T09:31:15.926Z,9.68
2018-07-21T09:35:19.387Z,10.25
2018-07-21T09:39:22.874Z,11.08
2018-07-21T09:43:26.283Z,9.93
2018-07-21T09:47:29.753Z,10.20
2018-07-21T09:51:33.227Z,10.32
2018-07-21T09:55:36.738Z,10.40
2018-07-21T09:59:40.233Z,10.65
2018-07-21T10:03:43.724Z,11.30
2018-07-21T10:07:47.261Z,11.50
2018-07-21T10:11:50.791Z,12.88
2018-07-21T10:15:54.263Z,10.18
2018-07-21T10:19:57.757Z,10.82
2018-07-21T10:25:05.139Z,10.20
2018-07-21T10:29:12.246Z,9.70
2018-07-21T10:33:15.859Z,10.78
2018-07-21T10:37:19.284Z,10.28
2018-07-21T10:41:22.754Z,10.30
2018-07-21T10:45:26.516Z,10.18
2018-07-21T10:49:29.974Z,10.05
2018-07-21T10:53:34.479Z,9.70
2018-07-21T10:57:37.890Z,9.68
2018-07-21T11:01:41.334Z,9.80
2018-07-21T11:05:44.861Z,9.90
2018-07-21T11:09:48.334Z,9.88
2018-07-21T11:13:51.927Z,9.65
2018-07-21T11:17:55.456Z,9.73
2018-07-21T11:21:58.948Z,8.80
2018-07-21T11:26:02.436Z,8.68
2018-07-21T11:30:06.536Z,9.03
2018-07-21T11:34:10.008Z,10.20
2018-07-21T11:38:13.443Z,8.98
2018-07-21T11:42:16.927Z,8.88
2018-07-21T11:46:20.388Z,8.45
2018-07-21T11:50:23.949Z,7.95
2018-07-21T11:54:27.409Z,8.83
2018-07-21T11:58:30.914Z,8.15
2018-07-21T12:02:34.447Z,8.15
2018-07-21T12:06:38.066Z,8.88
2018-07-21T12:10:41.623Z,7.65
2018-07-21T12:14:45.355Z,8.48
2018-07-21T12:18:48.986Z,9.30
2018-07-21T12:22:52.530Z,7.67
2018-07-21T12:26:56.110Z,7.87
2018-07-21T12:30:59.717Z,6.78
2018-07-21T12:35:03.306Z,6.40
2018-07-21T12:39:08.667Z,6.95
2018-07-21T12:43:12.362Z,6.28
2018-07-21T12:47:15.976Z,6.97
2018-07-21T12:51:19.609Z,6.00
2018-07-21T12:55:23.099Z,7.08
2018-07-21T12:59:26.631Z,5.87
2018-07-21T13:03:30.183Z,6.60
2018-07-21T13:07:33.698Z,6.78
2018-07-21T13:11:37.230Z,7.00
2018-07-21T13:15:40.695Z,6.42
2018-07-21T13:19:44.168Z,6.80
2018-07-21T13:23:47.712Z,6.20
2018-07-21T13:27:51.238Z,6.40
2018-07-21T13:31:54.779Z,5.92
2018-07-21T13:35:58.272Z,6.37
2018-07-21T13:40:01.753Z,6.45
2018-07-21T13:44:05.286Z,5.95
2018-07-21T13:48:08.729Z,5.97
2018-07-21T13:52:12.188Z,6.60
2018-07-21T13:56:15.669Z,5.85
2018-07-21T14:00:19.111Z,6.90
2018-07-21T14:04:22.633Z,6.03
2018-07-21T14:08:26.109Z,6.20
2018-07-21T14:12:29.658Z,6.28
2018-07-21T14:16:33.154Z,6.25
2018-07-21T14:20:36.734Z,5.95
2018-07-21T14:24:40.306Z,5.70
2018-07-21T14:28:43.775Z,6.40
2018-07-21T14:32:47.351Z,6.55
2018-07-21T14:36:50.894Z,5.75
2018-07-21T14:40:54.482Z,5.58
2018-07-21T14:44:57.995Z,5.85
2018-07-21T14:49:01.543Z,6.28
2018-07-21T14:53:05.093Z,6.95
2018-07-21T14:57:08.851Z,5.72
2018-07-21T15:01:12.540Z,6.28
2018-07-21T15:05:16.154Z,8.13
2018-07-21T15:09:19.875Z,6.65
2018-07-21T15:13:23.450Z,8.58
2018-07-21T15:17:26.871Z,8.28
2018-07-21T15:21:30.328Z,8.55
2018-07-21T15:25:33.803Z,11.63
2018-07-21T15:29:37.298Z,8.10
2018-07-21T15:33:40.749Z,9.38
2018-07-21T15:37:44.194Z,7.67
2018-07-21T15:41:47.763Z,6.65
2018-07-21T15:45:51.200Z,13.48
2018-07-21T15:49:54.737Z,11.95
2018-07-21T15:53:58.282Z,8.73
2018-07-21T15:58:02.036Z,11.90
2018-07-21T16:02:05.528Z,14.43
2018-07-21T16:06:08.998Z,14.80
2018-07-21T16:10:12.442Z,10.65
2018-07-21T16:14:15.861Z,11.10
2018-07-21T16:18:19.334Z,7.78
2018-07-21T16:22:22.754Z,8.60
2018-07-21T16:26:26.197Z,9.00
2018-07-21T16:30:29.657Z,8.25
2018-07-21T16:34:33.172Z,8.85
2018-07-21T16:38:36.593Z,8.63
2018-07-21T16:42:40.089Z,8.38
2018-07-21T16:46:43.520Z,10.05
2018-07-21T16:50:46.961Z,8.80
2018-07-21T16:54:50.410Z,8.78
2018-07-21T16:58:53.846Z,11.83
2018-07-21T17:02:57.307Z,9.15
2018-07-21T17:07:01.398Z,8.68
2018-07-21T17:11:04.902Z,9.98
2018-07-21T17:15:08.567Z,11.95
2018-07-21T17:19:12.052Z,10.35
2018-07-21T17:23:16.496Z,11.28
2018-07-21T17:27:22.536Z,13.25
2018-07-21T17:31:26.414Z,14.50
2018-07-21T17:35:30.263Z,10.93
2018-07-21T17:39:33.713Z,9.93
2018-07-21T17:43:37.226Z,12.15
2018-07-21T17:47:40.662Z,11.05
2018-07-21T17:51:44.135Z,12.28
2018-07-21T17:55:47.638Z,11.75
2018-07-21T17:59:51.087Z,13.60
2018-07-21T18:03:54.578Z,14.87
2018-07-21T18:07:58.022Z,16.10
2018-07-21T18:12:01.479Z,14.60
2018-07-21T18:16:04.997Z,14.55
2018-07-21T18:20:08.530Z,14.10
2018-07-21T18:24:11.917Z,14.63
2018-07-21T18:28:15.452Z,15.75
2018-07-21T18:32:18.924Z,16.37
2018-07-21T18:36:22.372Z,17.62
2018-07-21T18:40:25.809Z,18.57
2018-07-21T18:44:29.247Z,18.30
2018-07-21T18:48:32.709Z,19.00
2018-07-21T18:52:36.173Z,19.52
2018-07-21T18:56:39.629Z,20.23
2018-07-21T19:00:43.096Z,19.30
2018-07-21T19:04:46.547Z,19.77
2018-07-21T19:08:55.304Z,21.77
2018-07-21T19:12:58.781Z,18.80
2018-07-21T19:17:02.238Z,19.37
2018-07-21T19:21:10.906Z,18.73
2018-07-21T19:25:19.810Z,19.17
2018-07-21T19:29:23.270Z,18.92
2018-07-21T19:33:26.709Z,21.23
2018-07-21T19:37:35.658Z,19.87
2018-07-21T19:41:44.196Z,19.98
2018-07-21T19:45:47.741Z,19.73
2018-07-21T19:49:51.112Z,22.77
2018-07-21T19:53:54.578Z,21.87
2018-07-21T19:57:58.091Z,20.05
2018-07-21T20:02:01.591Z,21.48
2018-07-21T20:06:05.008Z,19.87
2018-07-21T20:10:08.439Z,23.07
2018-07-21T20:14:11.914Z,20.68
2018-07-21T20:18:15.387Z,22.50
2018-07-21T20:22:18.827Z,21.12
2018-07-21T20:26:22.294Z,21.70
2018-07-21T20:30:25.791Z,21.17
2018-07-21T20:34:29.191Z,22.05
2018-07-21T20:38:32.661Z,22.80
2018-07-21T20:42:36.108Z,23.52
2018-07-21T20:46:39.555Z,23.75
2018-07-21T20:50:43.076Z,23.38
2018-07-21T20:54:46.526Z,23.10
2018-07-21T20:58:49.992Z,23.22
2018-07-21T21:02:53.482Z,24.57
2018-07-21T21:06:56.956Z,23.98
2018-07-21T21:11:00.406Z,23.05
2018-07-21T21:15:03.914Z,23.80
2018-07-21T21:19:07.387Z,25.57
2018-07-21T21:23:11.845Z,26.25
2018-07-21T21:27:15.310Z,25.97
2018-07-21T21:31:18.789Z,28.15
2018-07-21T21:35:22.252Z,27.50
2018-07-21T21:39:25.719Z,27.22
2018-07-21T21:43:29.181Z,29.42
2018-07-21T21:47:32.658Z,27.52
2018-07-21T21:51:36.128Z,28.10
2018-07-21T21:55:39.577Z,31.37
2018-07-21T21:59:43.049Z,28.73
2018-07-21T22:03:46.561Z,28.77
2018-07-21T22:07:50.056Z,29.60
2018-07-21T22:11:53.508Z,28.55
2018-07-21T22:15:57.196Z,31.12
2018-07-21T22:20:00.692Z,29.90
2018-07-21T22:24:04.139Z,28.80
2018-07-21T22:28:08.142Z,29.23
2018-07-21T22:32:11.870Z,30.50
2018-07-21T22:36:15.342Z,31.65
2018-07-21T22:40:18.867Z,32.93
2018-07-21T22:44:22.343Z,34.07
2018-07-21T22:48:25.852Z,34.93
2018-07-21T22:52:29.295Z,35.70
2018-07-21T22:56:32.755Z,37.58
2018-07-21T23:00:36.218Z,41.63
2018-07-21T23:04:39.674Z,40.83
2018-07-21T23:08:43.152Z,42.20
2018-07-21T23:12:46.660Z,42.33
2018-07-21T23:16:50.125Z,41.42
2018-07-21T23:20:53.572Z,39.53
2018-07-21T23:24:57.018Z,39.95
2018-07-21T23:29:00.466Z,37.23
2018-07-21T23:33:03.979Z,35.30
2018-07-21T23:37:07.461Z,36.90
2018-07-21T23:41:10.955Z,33.43
2018-07-21T23:45:14.427Z,34.43
2018-07-21T23:49:17.840Z,35.95
2018-07-21T23:53:21.287Z,36.17
2018-07-21T23:57:24.746Z,38.57
